sensor_id;sensor_type;location;lat;lon;timestamp;pressure;altitude;pressure_sealevel;temperature;humidity
67840;BME280;54636;51.684;5.142;2023-03-05T00:00:48;102333.75;;;4.21;100.00
67840;BME280;54636;51.684;5.142;2023-03-05T00:03:13;102327.25;;;4.19;100.00
67840;BME280;54636;51.684;5.142;2023-03-05T00:05:38;102340.59;;;4.29;100.00
67840;BME280;54636;51.684;5.142;2023-03-05T00:08:05;102335.22;;;4.29;100.00
67840;BME280;54636;51.684;5.142;2023-03-05T00:10:30;102338.72;;;4.26;100.00
67840;BME280;54636;51.684;5.142;2023-03-05T00:12:55;102329.56;;;4.20;100.00
67840;BME280;54636;51.684;5.142;2023-03-05T00:15:21;102329.91;;;4.22;100.00
67840;BME280;54636;51.684;5.142;2023-03-05T00:17:46;102332.56;;;4.26;100.00
67840;BME280;54636;51.684;5.142;2023-03-05T00:20:11;102311.56;;;4.14;100.00
67840;BME280;54636;51.684;5.142;2023-03-05T00:22:37;102321.44;;;4.24;100.00
67840;BME280;54636;51.684;5.142;2023-03-05T00:25:03;102324.13;;;4.24;100.00
67840;BME280;54636;51.684;5.142;2023-03-05T00:27:29;102311.91;;;4.16;100.00
67840;BME280;54636;51.684;5.142;2023-03-05T00:29:54;102292.03;;;4.06;100.00
67840;BME280;54636;51.684;5.142;2023-03-05T00:32:20;102326.13;;;4.16;100.00
67840;BME280;54636;51.684;5.142;2023-03-05T00:34:45;102321.88;;;4.19;100.00
67840;BME280;54636;51.684;5.142;2023-03-05T00:37:11;102300.22;;;3.92;100.00
67840;BME280;54636;51.684;5.142;2023-03-05T00:39:36;102317.84;;;3.96;100.00
67840;BME280;54636;51.684;5.142;2023-03-05T00:42:01;102307.66;;;3.81;100.00
67840;BME280;54636;51.684;5.142;2023-03-05T00:44:27;102310.34;;;3.81;100.00
67840;BME280;54636;51.684;5.142;2023-03-05T00:46:52;102300.78;;;3.73;100.00
67840;BME280;54636;51.684;5.142;2023-03-05T00:49:18;102305.50;;;3.61;100.00
67840;BME280;54636;51.684;5.142;2023-03-05T00:51:43;102300.53;;;3.56;100.00
67840;BME280;54636;51.684;5.142;2023-03-05T00:54:08;102301.31;;;3.53;100.00
67840;BME280;54636;51.684;5.142;2023-03-05T00:56:34;102282.63;;;3.39;100.00
67840;BME280;54636;51.684;5.142;2023-03-05T00:58:59;102299.41;;;3.50;100.00
67840;BME280;54636;51.684;5.142;2023-03-05T01:01:25;102296.00;;;3.46;100.00
67840;BME280;54636;51.684;5.142;2023-03-05T01:03:50;102278.00;;;3.40;100.00
67840;BME280;54636;51.684;5.142;2023-03-05T01:06:17;102289.44;;;3.51;100.00
67840;BME280;54636;51.684;5.142;2023-03-05T01:08:43;102290.22;;;3.48;100.00
67840;BME280;54636;51.684;5.142;2023-03-05T01:11:10;102259.66;;;3.31;100.00
67840;BME280;54636;51.684;5.142;2023-03-05T01:13:36;102268.41;;;3.42;100.00
67840;BME280;54636;51.684;5.142;2023-03-05T01:16:02;102265.38;;;3.37;100.00
67840;BME280;54636;51.684;5.142;2023-03-05T01:18:28;102263.03;;;3.42;100.00
67840;BME280;54636;51.684;5.142;2023-03-05T01:20:54;102269.53;;;3.45;100.00
67840;BME280;54636;51.684;5.142;2023-03-05T01:23:19;102263.41;;;3.41;100.00
67840;BME280;54636;51.684;5.142;2023-03-05T01:25:45;102257.25;;;3.44;100.00
67840;BME280;54636;51.684;5.142;2023-03-05T01:28:10;102256.47;;;3.47;100.00
67840;BME280;54636;51.684;5.142;2023-03-05T01:30:36;102256.47;;;3.47;100.00
67840;BME280;54636;51.684;5.142;2023-03-05T01:33:02;102245.72;;;3.47;100.00
67840;BME280;54636;51.684;5.142;2023-03-05T01:35:28;102233.88;;;3.41;100.00
67840;BME280;54636;51.684;5.142;2023-03-05T01:37:53;102227.78;;;3.37;100.00
67840;BME280;54636;51.684;5.142;2023-03-05T01:40:27;102234.25;;;3.43;100.00
67840;BME280;54636;51.684;5.142;2023-03-05T01:42:59;102233.84;;;3.44;100.00
67840;BME280;54636;51.684;5.142;2023-03-05T01:45:25;102238.06;;;3.45;100.00
67840;BME280;54636;51.684;5.142;2023-03-05T01:47:51;102225.03;;;3.44;100.00
67840;BME280;54636;51.684;5.142;2023-03-05T01:50:20;102215.16;;;3.30;100.00
67840;BME280;54636;51.684;5.142;2023-03-05T01:52:51;102229.56;;;3.50;100.00
67840;BME280;54636;51.684;5.142;2023-03-05T01:55:21;102225.38;;;3.49;100.00
67840;BME280;54636;51.684;5.142;2023-03-05T01:57:54;102201.34;;;3.31;100.00
67840;BME280;54636;51.684;5.142;2023-03-05T02:00:26;102215.81;;;3.45;100.00
67840;BME280;54636;51.684;5.142;2023-03-05T02:02:54;102198.25;;;3.33;100.00
67840;BME280;54636;51.684;5.142;2023-03-05T02:05:25;102198.25;;;3.33;100.00
67840;BME280;54636;51.684;5.142;2023-03-05T02:07:56;102206.25;;;3.40;100.00
67840;BME280;54636;51.684;5.142;2023-03-05T02:10:26;102181.50;;;3.18;100.00
67840;BME280;54636;51.684;5.142;2023-03-05T02:12:53;102182.25;;;3.22;100.00
67840;BME280;54636;51.684;5.142;2023-03-05T02:15:20;102189.53;;;3.22;100.00
67840;BME280;54636;51.684;5.142;2023-03-05T02:17:46;102179.66;;;3.12;100.00
67840;BME280;54636;51.684;5.142;2023-03-05T02:20:18;102165.59;;;2.93;100.00
67840;BME280;54636;51.684;5.142;2023-03-05T02:22:43;102169.41;;;2.96;100.00
67840;BME280;54636;51.684;5.142;2023-03-05T02:25:14;102183.53;;;3.04;100.00
67840;BME280;54636;51.684;5.142;2023-03-05T02:27:42;102172.44;;;3.02;100.00
67840;BME280;54636;51.684;5.142;2023-03-05T02:30:10;102162.50;;;2.95;100.00
67840;BME280;54636;51.684;5.142;2023-03-05T02:32:36;102172.09;;;2.96;100.00
67840;BME280;54636;51.684;5.142;2023-03-05T02:35:02;102165.63;;;2.86;100.00
67840;BME280;54636;51.684;5.142;2023-03-05T02:37:27;102159.13;;;2.84;100.00
67840;BME280;54636;51.684;5.142;2023-03-05T02:39:52;102158.03;;;2.74;100.00
67840;BME280;54636;51.684;5.142;2023-03-05T02:42:18;102146.22;;;2.61;100.00
67840;BME280;54636;51.684;5.142;2023-03-05T02:44:43;102153.88;;;2.62;100.00
67840;BME280;54636;51.684;5.142;2023-03-05T02:47:08;102142.84;;;2.57;100.00
67840;BME280;54636;51.684;5.142;2023-03-05T02:49:34;102130.63;;;2.45;100.00
67840;BME280;54636;51.684;5.142;2023-03-05T02:51:59;102145.88;;;2.59;100.00
67840;BME280;54636;51.684;5.142;2023-03-05T02:54:24;102128.28;;;2.54;100.00
67840;BME280;54636;51.684;5.142;2023-03-05T02:56:50;102133.97;;;2.63;100.00
67840;BME280;54636;51.684;5.142;2023-03-05T02:59:15;102121.34;;;2.60;100.00
67840;BME280;54636;51.684;5.142;2023-03-05T03:01:41;102138.91;;;2.69;100.00
67840;BME280;54636;51.684;5.142;2023-03-05T03:04:06;102112.09;;;2.65;100.00
67840;BME280;54636;51.684;5.142;2023-03-05T03:06:31;102119.72;;;2.74;100.00
67840;BME280;54636;51.684;5.142;2023-03-05T03:08:57;102096.00;;;2.65;100.00
67840;BME280;54636;51.684;5.142;2023-03-05T03:11:22;102127.31;;;2.82;100.00
67840;BME280;54636;51.684;5.142;2023-03-05T03:13:47;102118.47;;;2.85;100.00
67840;BME280;54636;51.684;5.142;2023-03-05T03:16:14;102120.78;;;2.87;100.00
67840;BME280;54636;51.684;5.142;2023-03-05T03:18:40;102110.44;;;2.85;100.00
67840;BME280;54636;51.684;5.142;2023-03-05T03:21:06;102110.03;;;2.87;100.00
67840;BME280;54636;51.684;5.142;2023-03-05T03:23:32;102114.63;;;2.90;100.00
67840;BME280;54636;51.684;5.142;2023-03-05T03:25:58;102081.78;;;2.72;100.00
67840;BME280;54636;51.684;5.142;2023-03-05T03:28:23;102084.81;;;2.77;100.00
67840;BME280;54636;51.684;5.142;2023-03-05T03:30:49;102103.91;;;2.86;100.00
67840;BME280;54636;51.684;5.142;2023-03-05T03:33:16;102101.63;;;2.85;100.00
67840;BME280;54636;51.684;5.142;2023-03-05T03:35:43;102100.47;;;2.86;100.00
67840;BME280;54636;51.684;5.142;2023-03-05T03:38:09;102077.94;;;2.73;100.00
67840;BME280;54636;51.684;5.142;2023-03-05T03:40:35;102090.88;;;2.88;100.00
67840;BME280;54636;51.684;5.142;2023-03-05T03:43:01;102078.66;;;2.80;100.00
67840;BME280;54636;51.684;5.142;2023-03-05T03:45:27;102085.50;;;2.88;100.00
67840;BME280;54636;51.684;5.142;2023-03-05T03:47:53;102082.03;;;2.91;100.00
67840;BME280;54636;51.684;5.142;2023-03-05T03:50:18;102065.63;;;2.79;100.00
67840;BME280;54636;51.684;5.142;2023-03-05T03:52:45;102053.09;;;2.65;100.00
67840;BME280;54636;51.684;5.142;2023-03-05T03:55:11;102079.44;;;2.77;100.00
67840;BME280;54636;51.684;5.142;2023-03-05T03:57:36;102057.72;;;2.61;100.00
67840;BME280;54636;51.684;5.142;2023-03-05T04:00:03;102068.38;;;2.72;100.00
67840;BME280;54636;51.684;5.142;2023-03-05T04:02:32;102052.03;;;2.55;100.00
67840;BME280;54636;51.684;5.142;2023-03-05T04:04:57;102066.81;;;2.74;100.00
67840;BME280;54636;51.684;5.142;2023-03-05T04:07:23;102072.16;;;2.78;100.00
67840;BME280;54636;51.684;5.142;2023-03-05T04:09:48;102066.44;;;2.76;100.00
67840;BME280;54636;51.684;5.142;2023-03-05T04:12:14;102044.66;;;2.67;100.00
67840;BME280;54636;51.684;5.142;2023-03-05T04:14:43;102063.28;;;2.84;100.00
67840;BME280;54636;51.684;5.142;2023-03-05T04:17:10;102014.47;;;2.59;100.00
67840;BME280;54636;51.684;5.142;2023-03-05T04:19:35;102050.59;;;2.88;100.00
67840;BME280;54636;51.684;5.142;2023-03-05T04:22:00;102049.09;;;2.87;100.00
67840;BME280;54636;51.684;5.142;2023-03-05T04:24:26;102059.75;;;2.94;100.00
67840;BME280;54636;51.684;5.142;2023-03-05T04:26:51;102050.53;;;2.95;100.00
67840;BME280;54636;51.684;5.142;2023-03-05T04:29:17;102046.69;;;3.00;100.00
67840;BME280;54636;51.684;5.142;2023-03-05T04:31:42;102028.38;;;2.88;100.00
67840;BME280;54636;51.684;5.142;2023-03-05T04:34:07;102029.47;;;2.94;100.00
67840;BME280;54636;51.684;5.142;2023-03-05T04:36:33;102037.09;;;2.99;100.00
67840;BME280;54636;51.684;5.142;2023-03-05T04:38:58;102037.47;;;3.01;100.00
67840;BME280;54636;51.684;5.142;2023-03-05T04:41:24;102035.19;;;3.00;100.00
67840;BME280;54636;51.684;5.142;2023-03-05T04:43:49;102037.06;;;3.03;100.00
67840;BME280;54636;51.684;5.142;2023-03-05T04:46:14;102028.63;;;3.04;100.00
67840;BME280;54636;51.684;5.142;2023-03-05T04:48:40;102027.09;;;3.03;100.00
67840;BME280;54636;51.684;5.142;2023-03-05T04:51:06;102025.91;;;3.08;100.00
67840;BME280;54636;51.684;5.142;2023-03-05T04:53:31;102030.50;;;3.07;100.00
67840;BME280;54636;51.684;5.142;2023-03-05T04:55:56;102027.06;;;3.07;100.00
67840;BME280;54636;51.684;5.142;2023-03-05T04:58:22;102003.75;;;2.96;100.00
67840;BME280;54636;51.684;5.142;2023-03-05T05:00:48;102018.22;;;3.10;100.00
67840;BME280;54636;51.684;5.142;2023-03-05T05:03:13;101989.22;;;2.94;100.00
67840;BME280;54636;51.684;5.142;2023-03-05T05:05:39;101989.91;;;3.02;100.00
67840;BME280;54636;51.684;5.142;2023-03-05T05:08:04;102002.88;;;3.10;100.00
67840;BME280;54636;51.684;5.142;2023-03-05T05:10:30;101999.78;;;3.12;100.00
67840;BME280;54636;51.684;5.142;2023-03-05T05:12:56;102002.13;;;3.06;100.00
67840;BME280;54636;51.684;5.142;2023-03-05T05:15:21;101999.06;;;3.08;100.00
67840;BME280;54636;51.684;5.142;2023-03-05T05:17:47;101972.75;;;2.92;100.00
67840;BME280;54636;51.684;5.142;2023-03-05T05:20:14;101992.16;;;3.07;100.00
67840;BME280;54636;51.684;5.142;2023-03-05T05:22:40;101986.00;;;3.10;100.00
67840;BME280;54636;51.684;5.142;2023-03-05T05:25:06;101999.38;;;3.13;100.00
67840;BME280;54636;51.684;5.142;2023-03-05T05:27:32;101991.66;;;3.19;100.00
67840;BME280;54636;51.684;5.142;2023-03-05T05:29:57;101967.59;;;3.08;100.00
67840;BME280;54636;51.684;5.142;2023-03-05T05:32:23;101965.00;;;3.01;100.00
67840;BME280;54636;51.684;5.142;2023-03-05T05:34:57;101995.06;;;3.23;100.00
67840;BME280;54636;51.684;5.142;2023-03-05T05:37:23;101994.59;;;3.28;100.00
67840;BME280;54636;51.684;5.142;2023-03-05T05:39:49;101984.63;;;3.28;100.00
67840;BME280;54636;51.684;5.142;2023-03-05T05:42:20;101984.97;;;3.30;100.00
67840;BME280;54636;51.684;5.142;2023-03-05T05:44:45;101983.81;;;3.31;100.00
67840;BME280;54636;51.684;5.142;2023-03-05T05:47:12;101956.47;;;3.10;100.00
67840;BME280;54636;51.684;5.142;2023-03-05T05:49:38;101985.84;;;3.24;100.00
67840;BME280;54636;51.684;5.142;2023-03-05T05:52:04;101992.75;;;3.25;100.00
67840;BME280;54636;51.684;5.142;2023-03-05T05:54:30;101978.56;;;3.24;100.00
67840;BME280;54636;51.684;5.142;2023-03-05T05:56:55;101946.16;;;3.05;100.00
67840;BME280;54636;51.684;5.142;2023-03-05T05:59:20;101967.53;;;3.15;100.00
67840;BME280;54636;51.684;5.142;2023-03-05T06:01:46;101963.38;;;3.11;100.00
67840;BME280;54636;51.684;5.142;2023-03-05T06:04:11;101939.34;;;2.96;100.00
67840;BME280;54636;51.684;5.142;2023-03-05T06:06:36;101967.22;;;3.10;100.00
67840;BME280;54636;51.684;5.142;2023-03-05T06:09:03;101972.97;;;3.08;100.00
67840;BME280;54636;51.684;5.142;2023-03-05T06:11:28;101969.56;;;3.04;100.00
67840;BME280;54636;51.684;5.142;2023-03-05T06:13:54;101967.69;;;3.01;100.00
67840;BME280;54636;51.684;5.142;2023-03-05T06:16:22;101947.19;;;2.80;100.00
67840;BME280;54636;51.684;5.142;2023-03-05T06:18:49;101969.72;;;2.90;100.00
67840;BME280;54636;51.684;5.142;2023-03-05T06:21:16;101961.69;;;2.86;100.00
67840;BME280;54636;51.684;5.142;2023-03-05T06:23:44;101943.13;;;2.65;100.00
67840;BME280;54636;51.684;5.142;2023-03-05T06:26:12;101940.13;;;2.59;100.00
67840;BME280;54636;51.684;5.142;2023-03-05T06:28:38;101957.97;;;2.73;100.00
67840;BME280;54636;51.684;5.142;2023-03-05T06:31:09;101964.88;;;2.74;100.00
67840;BME280;54636;51.684;5.142;2023-03-05T06:33:35;101940.47;;;2.61;100.00
67840;BME280;54636;51.684;5.142;2023-03-05T06:36:09;101957.59;;;2.75;100.00
67840;BME280;54636;51.684;5.142;2023-03-05T06:38:35;101956.44;;;2.76;100.00
67840;BME280;54636;51.684;5.142;2023-03-05T06:41:03;101935.44;;;2.67;100.00
67840;BME280;54636;51.684;5.142;2023-03-05T06:43:34;101922.44;;;2.62;100.00
67840;BME280;54636;51.684;5.142;2023-03-05T06:46:15;101946.72;;;2.89;100.00
67840;BME280;54636;51.684;5.142;2023-03-05T06:48:41;101961.94;;;2.99;100.00
67840;BME280;54636;51.684;5.142;2023-03-05T06:51:14;101951.91;;;3.07;100.00
67840;BME280;54636;51.684;5.142;2023-03-05T06:53:40;101961.06;;;3.09;100.00
67840;BME280;54636;51.684;5.142;2023-03-05T06:56:06;101937.34;;;3.04;100.00
67840;BME280;54636;51.684;5.142;2023-03-05T06:58:31;101955.22;;;3.18;100.00
67840;BME280;54636;51.684;5.142;2023-03-05T07:00:56;101925.06;;;3.07;100.00
67840;BME280;54636;51.684;5.142;2023-03-05T07:03:22;101949.03;;;3.24;100.00
67840;BME280;54636;51.684;5.142;2023-03-05T07:05:47;101955.34;;;3.38;100.00
67840;BME280;54636;51.684;5.142;2023-03-05T07:08:12;101962.66;;;3.37;100.00
67840;BME280;54636;51.684;5.142;2023-03-05T07:10:39;101946.84;;;3.43;100.00
67840;BME280;54636;51.684;5.142;2023-03-05T07:13:05;101952.94;;;3.47;100.00
67840;BME280;54636;51.684;5.142;2023-03-05T07:15:31;101940.00;;;3.38;100.00
67840;BME280;54636;51.684;5.142;2023-03-05T07:17:56;101940.72;;;3.42;100.00
67840;BME280;54636;51.684;5.142;2023-03-05T07:20:21;101956.31;;;3.54;100.00
67840;BME280;54636;51.684;5.142;2023-03-05T07:22:47;101954.38;;;3.55;100.00
67840;BME280;54636;51.684;5.142;2023-03-05T07:25:12;101927.25;;;3.46;100.00
67840;BME280;54636;51.684;5.142;2023-03-05T07:27:38;101951.59;;;3.62;100.00
67840;BME280;54636;51.684;5.142;2023-03-05T07:30:04;101958.13;;;3.61;100.00
67840;BME280;54636;51.684;5.142;2023-03-05T07:32:29;101928.72;;;3.50;100.00
67840;BME280;54636;51.684;5.142;2023-03-05T07:34:55;101950.84;;;3.61;100.00
67840;BME280;54636;51.684;5.142;2023-03-05T07:37:20;101944.72;;;3.61;100.00
67840;BME280;54636;51.684;5.142;2023-03-05T07:39:46;101942.59;;;3.76;100.00
67840;BME280;54636;51.684;5.142;2023-03-05T07:42:11;101941.34;;;3.84;100.00
67840;BME280;54636;51.684;5.142;2023-03-05T07:44:37;101940.28;;;4.01;100.00
67840;BME280;54636;51.684;5.142;2023-03-05T07:47:03;101928.78;;;4.01;100.00
67840;BME280;54636;51.684;5.142;2023-03-05T07:49:29;101934.63;;;4.19;100.00
67840;BME280;54636;51.684;5.142;2023-03-05T07:51:54;101920.91;;;4.13;100.00
67840;BME280;54636;51.684;5.142;2023-03-05T07:54:20;101930.72;;;4.23;100.00
67840;BME280;54636;51.684;5.142;2023-03-05T07:56:45;101934.00;;;4.35;100.00
67840;BME280;54636;51.684;5.142;2023-03-05T07:59:12;101935.88;;;4.38;100.00
67840;BME280;54636;51.684;5.142;2023-03-05T08:01:38;101937.34;;;4.42;100.00
67840;BME280;54636;51.684;5.142;2023-03-05T08:04:04;101943.47;;;4.43;100.00
67840;BME280;54636;51.684;5.142;2023-03-05T08:06:30;101940.38;;;4.44;100.00
67840;BME280;54636;51.684;5.142;2023-03-05T08:08:57;101917.16;;;4.30;100.00
67840;BME280;54636;51.684;5.142;2023-03-05T08:11:22;101921.78;;;4.30;100.00
67840;BME280;54636;51.684;5.142;2023-03-05T08:13:48;101926.34;;;4.33;100.00
67840;BME280;54636;51.684;5.142;2023-03-05T08:16:16;101928.56;;;4.38;100.00
67840;BME280;54636;51.684;5.142;2023-03-05T08:18:42;101918.97;;;4.37;100.00
67840;BME280;54636;51.684;5.142;2023-03-05T08:21:20;101906.28;;;4.38;100.00
67840;BME280;54636;51.684;5.142;2023-03-05T08:23:46;101893.88;;;4.44;100.00
67840;BME280;54636;51.684;5.142;2023-03-05T08:26:13;101914.13;;;4.72;100.00
67840;BME280;54636;51.684;5.142;2023-03-05T08:28:39;101914.28;;;4.84;100.00
67840;BME280;54636;51.684;5.142;2023-03-05T08:31:11;101898.19;;;4.81;100.00
67840;BME280;54636;51.684;5.142;2023-03-05T08:33:38;101902.00;;;4.83;100.00
67840;BME280;54636;51.684;5.142;2023-03-05T08:36:04;101902.47;;;4.98;100.00
67840;BME280;54636;51.684;5.142;2023-03-05T08:38:30;101900.41;;;5.06;100.00
67840;BME280;54636;51.684;5.142;2023-03-05T08:40:55;101906.25;;;5.20;100.00
67840;BME280;54636;51.684;5.142;2023-03-05T08:43:20;101872.09;;;5.17;100.00
67840;BME280;54636;51.684;5.142;2023-03-05T08:45:46;101896.81;;;5.48;100.00
67840;BME280;54636;51.684;5.142;2023-03-05T08:48:15;101886.44;;;5.47;100.00
67840;BME280;54636;51.684;5.142;2023-03-05T08:50:40;101886.41;;;5.67;100.00
67840;BME280;54636;51.684;5.142;2023-03-05T08:53:06;101878.91;;;5.74;100.00
67840;BME280;54636;51.684;5.142;2023-03-05T08:55:32;101878.06;;;5.77;100.00
67840;BME280;54636;51.684;5.142;2023-03-05T08:57:58;101896.44;;;5.99;100.00
67840;BME280;54636;51.684;5.142;2023-03-05T09:00:23;101872.69;;;5.93;100.00
67840;BME280;54636;51.684;5.142;2023-03-05T09:02:48;101855.88;;;5.86;100.00
67840;BME280;54636;51.684;5.142;2023-03-05T09:05:15;101878.66;;;6.01;100.00
67840;BME280;54636;51.684;5.142;2023-03-05T09:07:40;101890.47;;;6.07;100.00
67840;BME280;54636;51.684;5.142;2023-03-05T09:10:06;101892.66;;;6.12;100.00
67840;BME280;54636;51.684;5.142;2023-03-05T09:12:34;101867.72;;;5.92;99.46
67840;BME280;54636;51.684;5.142;2023-03-05T09:14:59;101896.03;;;6.00;100.00
67840;BME280;54636;51.684;5.142;2023-03-05T09:17:24;101885.81;;;6.08;100.00
67840;BME280;54636;51.684;5.142;2023-03-05T09:19:50;101884.72;;;6.21;100.00
67840;BME280;54636;51.684;5.142;2023-03-05T09:22:15;101877.63;;;6.27;98.70
67840;BME280;54636;51.684;5.142;2023-03-05T09:24:40;101863.56;;;6.20;98.19
67840;BME280;54636;51.684;5.142;2023-03-05T09:27:07;101871.91;;;6.25;96.95
67840;BME280;54636;51.684;5.142;2023-03-05T09:29:33;101865.41;;;6.23;98.10
67840;BME280;54636;51.684;5.142;2023-03-05T09:31:58;101875.09;;;6.37;97.84
67840;BME280;54636;51.684;5.142;2023-03-05T09:34:23;101858.84;;;6.24;97.16
67840;BME280;54636;51.684;5.142;2023-03-05T09:36:49;101869.06;;;6.16;97.67
67840;BME280;54636;51.684;5.142;2023-03-05T09:39:15;101876.47;;;5.96;98.18
67840;BME280;54636;51.684;5.142;2023-03-05T09:56:10;101851.25;;;5.54;100.00
67840;BME280;54636;51.684;5.142;2023-03-05T09:58:46;101857.19;;;5.81;100.00
67840;BME280;54636;51.684;5.142;2023-03-05T10:01:29;101857.44;;;6.03;100.00
67840;BME280;54636;51.684;5.142;2023-03-05T10:06:52;101822.28;;;6.07;98.03
67840;BME280;54636;51.684;5.142;2023-03-05T10:14:52;101860.22;;;6.74;95.90
67840;BME280;54636;51.684;5.142;2023-03-05T10:25:39;101838.69;;;7.12;90.61
67840;BME280;54636;51.684;5.142;2023-03-05T10:28:16;101819.97;;;7.17;90.87
67840;BME280;54636;51.684;5.142;2023-03-05T10:33:44;101829.38;;;7.51;89.53
67840;BME280;54636;51.684;5.142;2023-03-05T10:36:31;101819.88;;;7.46;88.09
67840;BME280;54636;51.684;5.142;2023-03-05T10:39:14;101813.25;;;7.47;89.17
67840;BME280;54636;51.684;5.142;2023-03-05T10:42:24;101802.22;;;7.54;90.52
67840;BME280;54636;51.684;5.142;2023-03-05T10:44:54;101818.84;;;7.78;87.09
67840;BME280;54636;51.684;5.142;2023-03-05T10:47:27;101791.38;;;7.80;84.26
67840;BME280;54636;51.684;5.142;2023-03-05T10:49:56;101800.84;;;7.84;83.93
67840;BME280;54636;51.684;5.142;2023-03-05T10:52:39;101802.38;;;7.85;84.63
67840;BME280;54636;51.684;5.142;2023-03-05T10:55:15;101766.09;;;7.61;80.84
67840;BME280;54636;51.684;5.142;2023-03-05T10:57:42;101776.50;;;7.84;84.24
67840;BME280;54636;51.684;5.142;2023-03-05T11:03:00;101782.88;;;7.90;80.98
67840;BME280;54636;51.684;5.142;2023-03-05T11:08:33;101787.13;;;8.13;83.65
67840;BME280;54636;51.684;5.142;2023-03-05T11:11:09;101781.84;;;8.32;83.42
67840;BME280;54636;51.684;5.142;2023-03-05T11:13:43;101780.41;;;8.18;79.77
67840;BME280;54636;51.684;5.142;2023-03-05T11:16:23;101770.38;;;8.06;78.94
67840;BME280;54636;51.684;5.142;2023-03-05T11:18:49;101773.72;;;8.10;80.79
67840;BME280;54636;51.684;5.142;2023-03-05T11:21:19;101771.22;;;8.15;80.49
67840;BME280;54636;51.684;5.142;2023-03-05T11:24:09;101771.16;;;8.28;83.26
67840;BME280;54636;51.684;5.142;2023-03-05T11:26:45;101771.44;;;8.43;80.58
67840;BME280;54636;51.684;5.142;2023-03-05T11:29:18;101758.50;;;8.47;78.28
67840;BME280;54636;51.684;5.142;2023-03-05T11:31:43;101762.50;;;8.64;75.28
67840;BME280;54636;51.684;5.142;2023-03-05T11:36:59;101753.09;;;8.47;78.13
67840;BME280;54636;51.684;5.142;2023-03-05T11:39:29;101759.34;;;8.35;76.71
67840;BME280;54636;51.684;5.142;2023-03-05T11:42:03;101713.66;;;7.80;76.31
67840;BME280;54636;51.684;5.142;2023-03-05T11:44:50;101750.66;;;7.83;78.19
67840;BME280;54636;51.684;5.142;2023-03-05T11:47:22;101748.66;;;7.97;78.34
67840;BME280;54636;51.684;5.142;2023-03-05T11:49:53;101748.03;;;8.14;78.15
67840;BME280;54636;51.684;5.142;2023-03-05T11:52:27;101744.34;;;8.21;77.96
67840;BME280;54636;51.684;5.142;2023-03-05T11:55:06;101739.88;;;8.27;76.24
67840;BME280;54636;51.684;5.142;2023-03-05T11:57:52;101734.41;;;8.40;75.99
67840;BME280;54636;51.684;5.142;2023-03-05T12:00:30;101716.84;;;8.44;77.02
67840;BME280;54636;51.684;5.142;2023-03-05T12:02:58;101709.94;;;8.52;72.95
67840;BME280;54636;51.684;5.142;2023-03-05T12:05:27;101709.31;;;8.48;72.25
67840;BME280;54636;51.684;5.142;2023-03-05T12:07:57;101680.63;;;8.29;72.45
67840;BME280;54636;51.684;5.142;2023-03-05T12:10:25;101692.53;;;8.32;72.34
67840;BME280;54636;51.684;5.142;2023-03-05T12:21:29;101626.66;;;8.04;72.76
67840;BME280;54636;51.684;5.142;2023-03-05T12:23:59;101678.34;;;8.49;71.32
67840;BME280;54636;51.684;5.142;2023-03-05T12:31:59;101653.97;;;8.49;72.35
67840;BME280;54636;51.684;5.142;2023-03-05T12:37:11;101655.91;;;8.80;71.06
67840;BME280;54636;51.684;5.142;2023-03-05T12:39:46;101642.69;;;8.91;71.36
67840;BME280;54636;51.684;5.142;2023-03-05T12:55:37;101619.84;;;8.43;70.96
67840;BME280;54636;51.684;5.142;2023-03-05T13:03:52;101604.78;;;8.42;71.92
67840;BME280;54636;51.684;5.142;2023-03-05T13:09:03;101600.75;;;8.55;74.38
67840;BME280;54636;51.684;5.142;2023-03-05T13:11:31;101594.75;;;8.61;73.70
67840;BME280;54636;51.684;5.142;2023-03-05T13:13:59;101575.31;;;8.44;72.30
67840;BME280;54636;51.684;5.142;2023-03-05T13:16:28;101580.16;;;8.58;73.43
67840;BME280;54636;51.684;5.142;2023-03-05T13:18:56;101588.75;;;8.66;71.92
67840;BME280;54636;51.684;5.142;2023-03-05T13:21:29;101591.03;;;8.76;71.79
67840;BME280;54636;51.684;5.142;2023-03-05T13:23:58;101556.69;;;8.64;71.48
67840;BME280;54636;51.684;5.142;2023-03-05T13:26:29;101583.81;;;8.82;70.17
67840;BME280;54636;51.684;5.142;2023-03-05T13:29:12;101572.38;;;8.78;71.00
67840;BME280;54636;51.684;5.142;2023-03-05T13:39:21;101546.19;;;8.84;68.22
67840;BME280;54636;51.684;5.142;2023-03-05T13:42:14;101556.84;;;8.70;70.31
67840;BME280;54636;51.684;5.142;2023-03-05T13:44:39;101553.41;;;8.69;70.88
67840;BME280;54636;51.684;5.142;2023-03-05T13:47:14;101524.47;;;8.57;70.57
67840;BME280;54636;51.684;5.142;2023-03-05T13:49:41;101541.34;;;8.70;71.05
67840;BME280;54636;51.684;5.142;2023-03-05T13:52:08;101540.00;;;8.66;70.31
67840;BME280;54636;51.684;5.142;2023-03-05T13:54:34;101521.78;;;8.57;70.51
67840;BME280;54636;51.684;5.142;2023-03-05T13:57:04;101532.00;;;8.62;70.20
67840;BME280;54636;51.684;5.142;2023-03-05T13:59:31;101530.22;;;8.68;73.15
67840;BME280;54636;51.684;5.142;2023-03-05T14:01:59;101525.13;;;8.79;70.80
67840;BME280;54636;51.684;5.142;2023-03-05T14:04:34;101512.59;;;8.64;70.79
67840;BME280;54636;51.684;5.142;2023-03-05T14:07:04;101496.03;;;8.52;69.25
67840;BME280;54636;51.684;5.142;2023-03-05T14:09:50;101492.59;;;8.43;70.61
67840;BME280;54636;51.684;5.142;2023-03-05T14:12:36;101504.91;;;8.53;69.59
67840;BME280;54636;51.684;5.142;2023-03-05T14:15:04;101483.38;;;8.31;70.41
67840;BME280;54636;51.684;5.142;2023-03-05T14:17:43;101508.75;;;8.24;70.03
67840;BME280;54636;51.684;5.142;2023-03-05T14:22:43;101504.00;;;7.98;70.73
67840;BME280;54636;51.684;5.142;2023-03-05T14:27:58;101504.41;;;7.87;71.09
67840;BME280;54636;51.684;5.142;2023-03-05T14:30:24;101499.56;;;7.82;72.25